createdAt,value
2019-03-04T00:00:42.727Z,4.00
2019-03-04T00:01:42.701Z,4.00
2019-03-04T00:02:42.683Z,4.00
2019-03-04T00:03:42.664Z,4.00
2019-03-04T00:04:42.636Z,4.00
2019-03-04T00:05:42.662Z,4.00
2019-03-04T00:06:42.594Z,4.00
2019-03-04T00:07:42.581Z,4.00
2019-03-04T00:08:42.558Z,4.00
2019-03-04T00:09:42.529Z,4.00
2019-03-04T00:10:42.509Z,4.00
2019-03-04T00:11:42.496Z,4.00
2019-03-04T00:12:42.467Z,4.00
2019-03-04T00:13:42.445Z,4.00
2019-03-04T00:14:42.425Z,4.00
2019-03-04T00:15:42.403Z,4.00
2019-03-04T00:16:42.382Z,4.00
2019-03-04T00:17:42.362Z,4.00
2019-03-04T00:18:42.340Z,4.00
2019-03-04T00:19:42.318Z,4.00
2019-03-04T00:20:42.296Z,4.00
2019-03-04T00:21:42.276Z,4.00
2019-03-04T00:22:42.259Z,4.00
2019-03-04T00:23:42.234Z,4.00
2019-03-04T00:24:42.216Z,4.00
2019-03-04T00:25:42.193Z,4.00
2019-03-04T00:26:42.178Z,4.00
2019-03-04T00:27:42.151Z,4.00
2019-03-04T00:28:42.129Z,4.00
2019-03-04T00:29:42.122Z,4.00
2019-03-04T00:30:42.093Z,4.00
2019-03-04T00:31:42.065Z,4.00
2019-03-04T00:32:42.047Z,4.00
2019-03-04T00:33:42.022Z,4.00
2019-03-04T00:34:42.001Z,4.00
2019-03-04T00:35:41.979Z,4.00
2019-03-04T00:36:41.963Z,4.00
2019-03-04T00:37:41.951Z,4.00
2019-03-04T00:38:41.927Z,4.00
2019-03-04T00:39:41.896Z,4.00
2019-03-04T00:40:41.875Z,4.00
2019-03-04T00:41:41.855Z,4.00
2019-03-04T00:42:41.832Z,4.00
2019-03-04T00:43:41.814Z,4.00
2019-03-04T00:44:41.802Z,4.00
2019-03-04T00:45:41.769Z,4.00
2019-03-04T00:46:41.750Z,4.00
2019-03-04T00:47:41.727Z,4.00
2019-03-04T00:48:41.758Z,4.00
2019-03-04T00:49:41.688Z,4.00
2019-03-04T00:50:41.663Z,4.00
2019-03-04T00:51:41.651Z,4.00
2019-03-04T00:52:41.627Z,4.00
2019-03-04T00:53:41.607Z,4.00
2019-03-04T00:54:41.580Z,4.00
2019-03-04T00:55:41.569Z,4.00
2019-03-04T00:56:41.539Z,4.00
2019-03-04T00:57:41.516Z,4.00
2019-03-04T00:58:41.498Z,4.00
2019-03-04T00:59:41.477Z,4.00
2019-03-04T01:00:41.454Z,4.00
2019-03-04T01:01:41.431Z,4.00
2019-03-04T01:02:41.411Z,4.00
2019-03-04T01:03:41.399Z,4.00
2019-03-04T01:04:41.369Z,4.00
2019-03-04T01:05:41.356Z,4.00
2019-03-04T01:06:41.326Z,4.00
2019-03-04T01:07:41.310Z,4.00
2019-03-04T01:08:41.286Z,4.00
2019-03-04T01:09:41.268Z,4.00
2019-03-04T01:10:41.249Z,4.00
2019-03-04T01:11:41.220Z,4.00
2019-03-04T01:12:41.199Z,4.00
2019-03-04T01:13:41.179Z,4.00
2019-03-04T01:14:41.167Z,4.00
2019-03-04T01:15:41.144Z,4.00
2019-03-04T01:16:41.115Z,4.00
2019-03-04T01:17:41.094Z,4.00
2019-03-04T01:18:41.073Z,4.00
2019-03-04T01:19:41.058Z,4.00
2019-03-04T01:20:41.031Z,4.00
2019-03-04T01:21:41.010Z,4.00
2019-03-04T01:22:40.988Z,4.00
2019-03-04T01:23:40.967Z,4.00
2019-03-04T01:24:40.945Z,4.00
2019-03-04T01:25:40.926Z,4.00
2019-03-04T01:26:40.905Z,4.00
2019-03-04T01:27:40.882Z,4.00
2019-03-04T01:28:40.861Z,4.00
2019-03-04T01:29:40.842Z,4.00
2019-03-04T01:30:40.970Z,4.00
2019-03-04T01:31:40.798Z,4.00
2019-03-04T01:32:40.779Z,4.00
2019-03-04T01:33:40.756Z,4.00
2019-03-04T01:34:40.734Z,4.00
2019-03-04T01:35:40.715Z,4.00
2019-03-04T01:36:40.693Z,4.00
2019-03-04T01:37:40.671Z,4.00
2019-03-04T01:38:40.653Z,4.00
2019-03-04T01:39:40.629Z,4.00
2019-03-04T01:40:40.615Z,4.00
2019-03-04T01:41:40.585Z,4.00
2019-03-04T01:42:40.573Z,4.00
2019-03-04T01:43:40.544Z,4.00
2019-03-04T01:44:40.524Z,4.00
2019-03-04T01:45:40.501Z,4.00
2019-03-04T01:46:40.481Z,4.00
2019-03-04T01:47:40.469Z,4.00
2019-03-04T01:48:40.437Z,4.00
2019-03-04T01:49:40.416Z,4.00
2019-03-04T01:50:40.400Z,4.00
2019-03-04T01:51:40.374Z,4.00
2019-03-04T01:52:40.411Z,4.00
2019-03-04T01:53:40.336Z,4.00
2019-03-04T01:54:40.321Z,4.00
2019-03-04T01:55:40.289Z,4.00
2019-03-04T01:56:40.268Z,4.00
2019-03-04T01:57:40.244Z,4.00
2019-03-04T01:58:40.227Z,4.00
2019-03-04T01:59:40.208Z,4.00
2019-03-04T02:00:40.190Z,4.00
2019-03-04T02:01:40.161Z,4.00
2019-03-04T02:02:40.140Z,4.00
2019-03-04T02:03:40.136Z,4.00
2019-03-04T02:04:40.098Z,4.00
2019-03-04T02:05:40.091Z,4.00
2019-03-04T02:06:40.056Z,4.00
2019-03-04T02:07:40.035Z,4.00
2019-03-04T02:08:40.021Z,4.00
2019-03-04T02:09:39.990Z,4.00
2019-03-04T02:10:39.971Z,4.00
2019-03-04T02:11:39.949Z,4.00
2019-03-04T02:12:39.927Z,4.00
2019-03-04T02:13:39.905Z,4.00
2019-03-04T02:14:39.884Z,4.00
2019-03-04T02:15:39.864Z,4.00
2019-03-04T02:16:39.843Z,4.00
2019-03-04T02:17:39.822Z,4.00
2019-03-04T02:18:39.801Z,4.00
2019-03-04T02:19:39.778Z,4.00
2019-03-04T02:20:39.765Z,4.00
2019-03-04T02:21:39.762Z,4.00
2019-03-04T02:22:39.743Z,4.00
2019-03-04T02:23:39.695Z,4.00
2019-03-04T02:24:39.674Z,4.00
2019-03-04T02:25:39.653Z,4.00
2019-03-04T02:26:39.632Z,4.00
2019-03-04T02:27:39.610Z,4.00
2019-03-04T02:28:39.592Z,4.00
2019-03-04T02:29:39.568Z,4.00
2019-03-04T02:30:39.557Z,4.00
2019-03-04T02:31:39.532Z,4.00
2019-03-04T02:32:39.507Z,4.00
2019-03-04T02:33:39.488Z,4.00
2019-03-04T02:34:39.468Z,4.00
2019-03-04T02:35:39.441Z,4.00
2019-03-04T02:36:39.418Z,4.00
2019-03-04T02:37:39.399Z,4.00
2019-03-04T02:38:39.397Z,4.00
2019-03-04T02:39:39.354Z,4.00
2019-03-04T02:40:39.339Z,4.00
2019-03-04T02:41:39.318Z,4.00
2019-03-04T02:42:39.295Z,4.00
2019-03-04T02:43:39.283Z,4.00
2019-03-04T02:44:39.257Z,4.00
2019-03-04T02:45:39.231Z,4.00
2019-03-04T02:46:39.218Z,4.00
2019-03-04T02:47:39.247Z,4.00
2019-03-04T02:48:39.167Z,4.00
2019-03-04T02:49:39.146Z,4.00
2019-03-04T02:50:39.126Z,4.00
2019-03-04T02:51:39.101Z,4.00
2019-03-04T02:52:39.085Z,4.00
2019-03-04T02:53:39.059Z,4.00
2019-03-04T02:54:39.037Z,4.00
2019-03-04T02:55:39.020Z,4.00
2019-03-04T02:56:39.000Z,4.00
2019-03-04T02:57:38.974Z,4.00
2019-03-04T02:58:38.965Z,4.00
2019-03-04T02:59:38.933Z,4.00
2019-03-04T03:00:38.912Z,4.00
2019-03-04T03:01:38.898Z,4.00
2019-03-04T03:02:38.873Z,4.00
2019-03-04T03:03:38.851Z,4.00
2019-03-04T03:04:38.824Z,4.00
2019-03-04T03:05:38.804Z,4.00
2019-03-04T03:06:38.783Z,4.00
2019-03-04T03:07:38.763Z,4.00
2019-03-04T03:08:38.741Z,4.00
2019-03-04T03:09:38.719Z,4.00
2019-03-04T03:10:38.698Z,4.00
2019-03-04T03:11:38.679Z,4.00
2019-03-04T03:12:38.660Z,4.00
2019-03-04T03:13:38.636Z,4.00
2019-03-04T03:14:38.645Z,4.00
2019-03-04T03:15:38.597Z,4.00
2019-03-04T03:16:38.572Z,4.00
2019-03-04T03:17:38.549Z,4.00
2019-03-04T03:18:38.529Z,4.00
2019-03-04T03:19:38.507Z,4.00
2019-03-04T03:20:38.487Z,4.00
2019-03-04T03:21:38.464Z,4.00
2019-03-04T03:22:38.461Z,4.00
2019-03-04T03:23:38.501Z,4.00
2019-03-04T03:24:38.400Z,4.00
2019-03-04T03:25:38.380Z,4.00
2019-03-04T03:26:38.360Z,4.00
2019-03-04T03:27:38.339Z,4.00
2019-03-04T03:28:38.317Z,4.00
2019-03-04T03:29:38.294Z,4.00
2019-03-04T03:30:38.274Z,4.00
2019-03-04T03:31:38.262Z,4.00
2019-03-04T03:32:38.232Z,4.00
2019-03-04T03:33:38.217Z,4.00
2019-03-04T03:34:38.191Z,4.00
2019-03-04T03:35:38.183Z,4.00
2019-03-04T03:36:38.145Z,4.00
2019-03-04T03:37:38.131Z,4.00
2019-03-04T03:38:38.109Z,4.00
2019-03-04T03:39:38.080Z,4.00
2019-03-04T03:40:38.063Z,4.00
2019-03-04T03:41:38.045Z,4.00
2019-03-04T03:42:38.028Z,4.00
2019-03-04T03:43:37.996Z,4.00
2019-03-04T03:44:37.977Z,4.00
2019-03-04T03:45:37.972Z,4.00
2019-03-04T03:46:37.950Z,4.00
2019-03-04T03:47:37.912Z,4.00
2019-03-04T03:48:37.892Z,4.00
2019-03-04T03:49:37.879Z,4.00
2019-03-04T03:50:37.847Z,4.00
2019-03-04T03:51:37.826Z,4.00
2019-03-04T03:52:37.805Z,4.00
2019-03-04T03:53:37.834Z,4.00
2019-03-04T03:54:37.764Z,4.00
2019-03-04T03:55:37.743Z,4.00
2019-03-04T03:56:37.732Z,4.00
2019-03-04T03:57:37.710Z,4.00
2019-03-04T03:58:37.696Z,4.00
2019-03-04T03:59:37.656Z,4.00
2019-03-04T04:00:37.661Z,4.00
2019-03-04T04:01:37.622Z,4.00
2019-03-04T04:02:37.621Z,4.00
2019-03-04T04:03:37.583Z,4.00
2019-03-04T04:04:37.550Z,4.00
2019-03-04T04:05:37.527Z,4.00
2019-03-04T04:06:37.513Z,4.00
2019-03-04T04:07:37.488Z,4.00
2019-03-04T04:08:37.465Z,4.00
2019-03-04T04:09:37.445Z,4.00
2019-03-04T04:10:37.425Z,4.00
2019-03-04T04:11:37.400Z,4.00
2019-03-04T04:12:37.491Z,4.00
2019-03-04T04:13:37.359Z,4.00
2019-03-04T04:14:37.344Z,4.00
2019-03-04T04:15:37.364Z,4.00
2019-03-04T04:16:37.302Z,4.00
2019-03-04T04:17:37.273Z,4.00
2019-03-04T04:18:37.250Z,4.00
2019-03-04T04:19:37.228Z,4.00
2019-03-04T04:20:37.213Z,4.00
2019-03-04T04:21:37.187Z,4.00
2019-03-04T04:22:37.168Z,4.00
2019-03-04T04:23:37.148Z,4.00
2019-03-04T04:24:37.122Z,4.00
2019-03-04T04:25:37.104Z,4.00
2019-03-04T04:26:37.092Z,4.00
2019-03-04T04:27:37.073Z,4.00
2019-03-04T04:28:37.037Z,4.00
2019-03-04T04:29:37.021Z,4.00
2019-03-04T04:30:36.997Z,4.00
2019-03-04T04:31:36.973Z,4.00
2019-03-04T04:32:36.953Z,4.00
2019-03-04T04:33:36.931Z,4.00
2019-03-04T04:34:36.916Z,4.00
2019-03-04T04:35:36.889Z,4.00
2019-03-04T04:36:36.868Z,4.00
2019-03-04T04:37:36.848Z,4.00
2019-03-04T04:38:36.825Z,4.00
2019-03-04T04:39:36.873Z,4.00
2019-03-04T04:40:36.781Z,4.00
2019-03-04T04:41:36.761Z,4.00
2019-03-04T04:42:36.745Z,4.00
2019-03-04T04:43:36.717Z,4.00
2019-03-04T04:44:36.696Z,4.00
2019-03-04T04:45:36.676Z,4.00
2019-03-04T04:46:36.653Z,4.00
2019-03-04T04:47:36.631Z,4.00
2019-03-04T04:48:36.612Z,4.00
2019-03-04T04:49:36.590Z,4.00
2019-03-04T04:50:36.569Z,4.00
2019-03-04T04:51:36.545Z,4.00
2019-03-04T04:52:36.525Z,4.00
2019-03-04T04:53:36.504Z,4.00
2019-03-04T04:54:36.482Z,4.00
2019-03-04T04:55:36.460Z,4.00
2019-03-04T04:56:36.439Z,4.00
2019-03-04T04:57:36.418Z,4.00
2019-03-04T04:58:36.401Z,4.00
2019-03-04T04:59:36.377Z,4.00
2019-03-04T05:00:36.353Z,4.00
2019-03-04T05:01:36.343Z,4.00
2019-03-04T05:02:36.313Z,4.00
2019-03-04T05:03:36.291Z,4.00
2019-03-04T05:04:36.368Z,4.00
2019-03-04T05:05:36.246Z,4.00
2019-03-04T05:06:36.224Z,4.00
2019-03-04T05:07:36.206Z,4.00
2019-03-04T05:08:36.182Z,4.00
2019-03-04T05:09:36.164Z,4.00
2019-03-04T05:10:36.142Z,4.00
2019-03-04T05:11:36.118Z,4.00
2019-03-04T05:12:36.097Z,4.00
2019-03-04T05:13:36.076Z,4.00
2019-03-04T05:14:36.054Z,4.00
2019-03-04T05:15:36.031Z,4.00
2019-03-04T05:16:36.012Z,4.00
2019-03-04T05:17:36.001Z,4.00
2019-03-04T05:18:35.969Z,4.00
2019-03-04T05:19:35.948Z,4.00
2019-03-04T05:20:35.937Z,4.00
2019-03-04T05:21:35.915Z,4.00
2019-03-04T05:22:35.894Z,4.00
2019-03-04T05:23:35.865Z,4.00
2019-03-04T05:24:35.844Z,4.00
2019-03-04T05:25:35.823Z,4.00
2019-03-04T05:26:35.909Z,4.00
2019-03-04T05:27:35.788Z,4.00
2019-03-04T05:28:35.758Z,4.00
2019-03-04T05:29:35.738Z,4.00
2019-03-04T05:30:35.716Z,4.00
2019-03-04T05:31:35.695Z,4.00
2019-03-04T05:32:35.682Z,4.00
2019-03-04T05:33:35.659Z,4.00
2019-03-04T05:34:35.631Z,4.00
2019-03-04T05:35:35.620Z,4.00
2019-03-04T05:36:35.589Z,4.00
2019-03-04T05:37:35.569Z,4.00
2019-03-04T05:38:35.547Z,4.00
2019-03-04T05:39:35.525Z,4.00
2019-03-04T05:40:35.519Z,4.00
2019-03-04T05:41:35.484Z,4.00
2019-03-04T05:42:35.463Z,4.00
2019-03-04T05:43:35.448Z,4.00
2019-03-04T05:44:35.419Z,4.00
2019-03-04T05:45:35.398Z,4.00
2019-03-04T05:46:35.384Z,4.00
2019-03-04T05:47:35.364Z,4.00
2019-03-04T05:48:35.347Z,4.00
2019-03-04T05:49:35.316Z,8.00
2019-03-04T05:50:35.294Z,4.00
2019-03-04T05:51:35.282Z,8.00
2019-03-04T05:52:35.252Z,8.00
2019-03-04T05:53:35.230Z,8.00
2019-03-04T05:54:35.211Z,8.00
2019-03-04T05:55:35.187Z,12.00
2019-03-04T05:56:35.168Z,8.00
2019-03-04T05:57:35.147Z,12.00
2019-03-04T05:58:35.130Z,12.00
2019-03-04T05:59:35.205Z,16.00
2019-03-04T06:00:35.090Z,24.00
2019-03-04T06:01:35.111Z,24.00
2019-03-04T06:02:35.045Z,28.00
2019-03-04T06:03:35.021Z,32.00
2019-03-04T06:04:35.001Z,32.00
2019-03-04T06:05:34.984Z,28.00
2019-03-04T06:06:34.968Z,32.00
2019-03-04T06:07:34.942Z,32.00
2019-03-04T06:08:34.917Z,32.00
2019-03-04T06:09:34.899Z,32.00
2019-03-04T06:10:34.918Z,36.00
2019-03-04T06:11:34.855Z,36.00
2019-03-04T06:12:34.839Z,36.00
2019-03-04T06:13:34.813Z,56.00
2019-03-04T06:14:34.794Z,60.00
2019-03-04T06:15:34.780Z,52.00
2019-03-04T06:16:34.761Z,64.00
2019-03-04T06:17:34.731Z,76.00
2019-03-04T06:18:34.711Z,100.00
2019-03-04T06:19:34.699Z,200.00
2019-03-04T06:20:34.672Z,264.00
2019-03-04T06:21:34.647Z,388.00
2019-03-04T06:22:34.638Z,336.00
2019-03-04T06:23:34.606Z,196.00
2019-03-04T06:24:34.584Z,132.00
2019-03-04T06:25:34.569Z,84.00
2019-03-04T06:26:34.544Z,52.00
2019-03-04T06:27:34.529Z,48.00
2019-03-04T06:28:34.502Z,48.00
2019-03-04T06:29:34.483Z,48.00
2019-03-04T06:30:34.459Z,44.00
2019-03-04T06:31:34.440Z,60.00
2019-03-04T06:32:34.421Z,88.00
2019-03-04T06:33:34.403Z,108.00
2019-03-04T06:34:34.376Z,132.00
2019-03-04T06:35:34.356Z,140.00
2019-03-04T06:36:34.335Z,196.00
2019-03-04T06:37:34.320Z,276.00
2019-03-04T06:38:34.293Z,300.00
2019-03-04T06:39:34.272Z,232.00
2019-03-04T06:40:34.250Z,188.00
2019-03-04T06:41:34.246Z,180.00
2019-03-04T06:42:34.209Z,160.00
2019-03-04T06:43:34.186Z,144.00
2019-03-04T06:44:34.174Z,144.00
2019-03-04T06:45:34.147Z,152.00
2019-03-04T06:46:34.224Z,164.00
2019-03-04T06:47:34.101Z,192.00
2019-03-04T06:48:34.081Z,192.00
2019-03-04T06:49:34.059Z,196.00
2019-03-04T06:50:34.037Z,196.00
2019-03-04T06:51:34.015Z,176.00
2019-03-04T06:52:33.993Z,172.00
2019-03-04T06:53:33.971Z,180.00
2019-03-04T06:54:33.951Z,188.00
2019-03-04T06:55:33.929Z,172.00
2019-03-04T06:56:33.910Z,172.00
2019-03-04T06:57:33.885Z,224.00
2019-03-04T06:58:33.862Z,236.00
2019-03-04T06:59:33.903Z,216.00
2019-03-04T07:00:33.820Z,228.00
2019-03-04T07:01:33.807Z,252.00
2019-03-04T07:02:33.776Z,292.00
2019-03-04T07:03:33.759Z,336.00
2019-03-04T07:04:33.731Z,440.00
2019-03-04T07:05:33.711Z,472.00
2019-03-04T07:06:33.696Z,464.00
2019-03-04T07:07:33.665Z,408.00
2019-03-04T07:08:33.648Z,380.00
2019-03-04T07:09:33.624Z,428.00
2019-03-04T07:10:33.602Z,524.00
2019-03-04T07:11:33.579Z,596.00
2019-03-04T07:12:33.556Z,684.00
2019-03-04T07:13:33.534Z,844.00
2019-03-04T07:14:33.515Z,964.00
2019-03-04T07:15:33.492Z,932.00
2019-03-04T07:16:33.468Z,920.00
2019-03-04T07:17:33.449Z,1020.00
2019-03-04T07:18:33.433Z,1216.00
2019-03-04T07:19:33.404Z,1252.00
2019-03-04T07:20:33.385Z,1124.00
2019-03-04T07:21:33.371Z,848.00
2019-03-04T07:22:33.347Z,576.00
2019-03-04T07:23:33.321Z,400.00
2019-03-04T07:24:33.295Z,396.00
2019-03-04T07:25:33.270Z,504.00
2019-03-04T07:26:33.249Z,672.00
2019-03-04T07:27:33.229Z,756.00
2019-03-04T07:28:33.212Z,1076.00
2019-03-04T07:29:33.182Z,1308.00
2019-03-04T07:30:33.162Z,1532.00
2019-03-04T07:31:33.138Z,1492.00
2019-03-04T07:32:33.122Z,1668.00
2019-03-04T07:33:33.095Z,2456.00
2019-03-04T07:34:33.887Z,3868.00
2019-03-04T07:35:33.049Z,5332.00
2019-03-04T07:36:33.041Z,5436.00
2019-03-04T07:37:33.006Z,5344.00
2019-03-04T07:38:32.991Z,5804.00
2019-03-04T07:39:32.961Z,5748.00
2019-03-04T07:40:32.944Z,4740.00
2019-03-04T07:41:32.916Z,3660.00
2019-03-04T07:42:32.894Z,3108.00
2019-03-04T07:43:32.873Z,2884.00
2019-03-04T07:44:32.849Z,2724.00
2019-03-04T07:45:32.830Z,2684.00
2019-03-04T07:46:32.815Z,2944.00
2019-03-04T07:47:32.788Z,3120.00
2019-03-04T07:48:32.771Z,3124.00
2019-03-04T07:49:32.741Z,3168.00
2019-03-04T07:50:32.726Z,2960.00
2019-03-04T07:51:32.694Z,2780.00
2019-03-04T07:52:32.676Z,2844.00
2019-03-04T07:53:32.653Z,2924.00
2019-03-04T07:54:32.632Z,3180.00
2019-03-04T07:55:32.618Z,3580.00
2019-03-04T07:56:32.593Z,3908.00
2019-03-04T07:57:32.574Z,4336.00
2019-03-04T07:58:32.543Z,6168.00
2019-03-04T07:59:32.533Z,10228.00
2019-03-04T08:00:32.518Z,10372.00
2019-03-04T08:01:32.483Z,8316.00
2019-03-04T08:02:32.455Z,6744.00
2019-03-04T08:03:32.432Z,4236.00
2019-03-04T08:04:32.411Z,4028.00
2019-03-04T08:05:32.390Z,4364.00
2019-03-04T08:06:32.380Z,3740.00
2019-03-04T08:07:32.347Z,4328.00
2019-03-04T08:08:32.338Z,3632.00
2019-03-04T08:09:32.308Z,3152.00
2019-03-04T08:10:32.292Z,4796.00
2019-03-04T08:11:32.262Z,6440.00
2019-03-04T08:12:32.238Z,9764.00
2019-03-04T08:13:32.231Z,10480.00
2019-03-04T08:14:32.198Z,12568.00
2019-03-04T08:15:32.179Z,15232.00
2019-03-04T08:16:32.158Z,13116.00
2019-03-04T08:17:32.131Z,5944.00
2019-03-04T08:18:32.112Z,3904.00
2019-03-04T08:19:32.097Z,3408.00
2019-03-04T08:20:32.070Z,2888.00
2019-03-04T08:21:32.058Z,2784.00
2019-03-04T08:22:32.027Z,3176.00
2019-03-04T08:23:32.013Z,3104.00
2019-03-04T08:24:31.988Z,2816.00
2019-03-04T08:25:31.964Z,1556.00
2019-03-04T08:26:31.945Z,836.00
2019-03-04T08:27:31.920Z,696.00
2019-03-04T08:28:31.900Z,800.00
2019-03-04T08:29:31.879Z,904.00
2019-03-04T08:30:31.857Z,1352.00
2019-03-04T08:31:31.842Z,1588.00
2019-03-04T08:32:31.828Z,1628.00
2019-03-04T08:33:31.792Z,1568.00
2019-03-04T08:34:31.772Z,1456.00
2019-03-04T08:35:31.848Z,2760.00
2019-03-04T08:36:31.736Z,3812.00
2019-03-04T08:37:31.707Z,3300.00
2019-03-04T08:38:31.687Z,2452.00
2019-03-04T08:39:31.662Z,3148.00
2019-03-04T08:40:31.642Z,2968.00
2019-03-04T08:41:31.622Z,2688.00
2019-03-04T08:42:31.598Z,4608.00
2019-03-04T08:43:31.576Z,6468.00
2019-03-04T08:44:31.552Z,6844.00
2019-03-04T08:45:31.533Z,9080.00
2019-03-04T08:46:31.514Z,12600.00
2019-03-04T08:47:31.486Z,12376.00
2019-03-04T08:48:31.469Z,11032.00
2019-03-04T08:49:31.448Z,10344.00
2019-03-04T08:50:31.423Z,17120.00
2019-03-04T08:51:31.401Z,12748.00
2019-03-04T08:52:31.383Z,49696.00
2019-03-04T08:53:31.362Z,25728.00
2019-03-04T08:54:31.336Z,16300.00
2019-03-04T08:55:31.327Z,22048.00
2019-03-04T08:56:31.293Z,14656.00
2019-03-04T08:57:31.272Z,12460.00
2019-03-04T08:58:31.257Z,9112.00
2019-03-04T08:59:31.229Z,10476.00
2019-03-04T09:00:31.219Z,67680.00
2019-03-04T09:01:31.457Z,45632.00
2019-03-04T09:02:31.177Z,33600.00
2019-03-04T09:03:31.155Z,25728.00
2019-03-04T09:04:31.131Z,8280.00
2019-03-04T09:05:31.116Z,40992.00
2019-03-04T09:06:31.095Z,16188.00
2019-03-04T09:07:31.066Z,15260.00
2019-03-04T09:08:31.046Z,21824.00
2019-03-04T09:09:31.029Z,16440.00
2019-03-04T09:10:31.011Z,12596.00
2019-03-04T09:11:30.996Z,12332.00
2019-03-04T09:12:30.967Z,11576.00
2019-03-04T09:13:30.948Z,15840.00
2019-03-04T09:14:30.929Z,13968.00
2019-03-04T09:15:30.908Z,13004.00
2019-03-04T09:16:30.900Z,14212.00
2019-03-04T09:17:30.870Z,13924.00
2019-03-04T09:18:32.077Z,8688.00
2019-03-04T09:19:30.838Z,8248.00
2019-03-04T09:20:30.812Z,8772.00
2019-03-04T09:21:30.798Z,5536.00
2019-03-04T09:22:30.774Z,4240.00
2019-03-04T09:23:30.763Z,4856.00
2019-03-04T09:24:30.736Z,4724.00
2019-03-04T09:25:30.929Z,7012.00
2019-03-04T09:26:30.698Z,9036.00
2019-03-04T09:27:30.677Z,6732.00
2019-03-04T09:28:30.662Z,3820.00
2019-03-04T09:29:30.638Z,9400.00
2019-03-04T09:30:30.618Z,8164.00
2019-03-04T09:31:30.597Z,4436.00
2019-03-04T09:32:30.579Z,6388.00
2019-03-04T09:33:30.568Z,6736.00
2019-03-04T09:34:30.539Z,3384.00
2019-03-04T09:35:32.567Z,3864.00
2019-03-04T09:36:30.498Z,5096.00
2019-03-04T09:37:30.479Z,5084.00
2019-03-04T09:38:30.462Z,5504.00
2019-03-04T09:39:30.438Z,5972.00
2019-03-04T09:40:30.419Z,5516.00
2019-03-04T09:41:30.415Z,4704.00
2019-03-04T09:42:30.383Z,4132.00
2019-03-04T09:43:30.365Z,5960.00
2019-03-04T09:44:30.348Z,6628.00
2019-03-04T09:45:38.323Z,7404.00
2019-03-04T09:46:30.296Z,7184.00
2019-03-04T09:47:30.277Z,9744.00
2019-03-04T09:48:30.264Z,12092.00
2019-03-04T09:49:30.237Z,13840.00
2019-03-04T09:50:30.227Z,11244.00
2019-03-04T09:51:30.195Z,9616.00
2019-03-04T09:52:30.183Z,7380.00
2019-03-04T09:53:39.100Z,8316.00
2019-03-04T09:54:30.139Z,9664.00
2019-03-04T09:55:30.114Z,11708.00
2019-03-04T09:56:30.104Z,9644.00
2019-03-04T09:57:30.084Z,10804.00
2019-03-04T09:58:30.064Z,7972.00
2019-03-04T09:59:30.041Z,6132.00
2019-03-04T10:00:30.014Z,5504.00
2019-03-04T10:01:29.993Z,5712.00
2019-03-04T10:02:29.972Z,3736.00
2019-03-04T10:03:29.954Z,3452.00
2019-03-04T10:04:29.932Z,3608.00
2019-03-04T10:05:29.914Z,3232.00
2019-03-04T10:06:29.898Z,3188.00
2019-03-04T10:07:29.880Z,4016.00
2019-03-04T10:08:32.845Z,2872.00
2019-03-04T10:09:29.832Z,2356.00
2019-03-04T10:10:29.836Z,3976.00
2019-03-04T10:11:29.791Z,5340.00
2019-03-04T10:12:29.771Z,6080.00
2019-03-04T10:13:29.753Z,6396.00
2019-03-04T10:14:29.729Z,6336.00
2019-03-04T10:15:29.709Z,7704.00
2019-03-04T10:16:29.688Z,7612.00
2019-03-04T10:17:29.666Z,9080.00
2019-03-04T10:18:29.653Z,9944.00
2019-03-04T10:19:29.625Z,10668.00
2019-03-04T10:20:29.613Z,11576.00
2019-03-04T10:21:29.583Z,11844.00
2019-03-04T10:22:29.563Z,12168.00
2019-03-04T10:23:29.550Z,10552.00
2019-03-04T10:24:29.529Z,11536.00
2019-03-04T10:25:29.509Z,12012.00
2019-03-04T10:26:29.481Z,14028.00
2019-03-04T10:27:29.461Z,15364.00
2019-03-04T10:28:29.445Z,16276.00
2019-03-04T10:29:29.424Z,10996.00
2019-03-04T10:30:29.397Z,11732.00
2019-03-04T10:31:29.384Z,14244.00
2019-03-04T10:32:29.364Z,12244.00
2019-03-04T10:33:29.343Z,11500.00
2019-03-04T10:34:29.314Z,13068.00
2019-03-04T10:35:29.298Z,13980.00
2019-03-04T10:36:29.426Z,13740.00
2019-03-04T10:37:29.270Z,14964.00
2019-03-04T10:38:29.233Z,12456.00
2019-03-04T10:39:29.211Z,13600.00
2019-03-04T10:40:29.202Z,11652.00
2019-03-04T10:41:29.179Z,13116.00
2019-03-04T10:42:29.153Z,24480.00
2019-03-04T10:43:29.137Z,13016.00
2019-03-04T10:44:29.125Z,13892.00
2019-03-04T10:45:29.090Z,14808.00
2019-03-04T10:46:29.071Z,16500.00
2019-03-04T10:47:29.061Z,30048.00
2019-03-04T10:48:29.044Z,33824.00
2019-03-04T10:49:29.011Z,15400.00
2019-03-04T10:50:28.990Z,14096.00
2019-03-04T10:51:28.970Z,12376.00
2019-03-04T10:52:28.955Z,18688.00
2019-03-04T10:53:28.939Z,17088.00
2019-03-04T10:54:28.910Z,27904.00
2019-03-04T10:55:28.906Z,35616.00
2019-03-04T10:56:28.890Z,14732.00
2019-03-04T10:57:28.858Z,12788.00
2019-03-04T10:58:28.840Z,23008.00
2019-03-04T10:59:28.822Z,12996.00
2019-03-04T11:00:28.820Z,12960.00
2019-03-04T11:01:30.656Z,13220.00
2019-03-04T11:02:28.756Z,11260.00
2019-03-04T11:03:28.740Z,9512.00
2019-03-04T11:04:28.729Z,7208.00
2019-03-04T11:05:28.703Z,4588.00
2019-03-04T11:06:28.684Z,3744.00
2019-03-04T11:07:28.666Z,4236.00
2019-03-04T11:08:28.655Z,3196.00
2019-03-04T11:09:28.624Z,2536.00
2019-03-04T11:10:28.601Z,2236.00
2019-03-04T11:11:30.145Z,1996.00
2019-03-04T11:12:28.619Z,1396.00
2019-03-04T11:13:28.541Z,1312.00
2019-03-04T11:14:28.522Z,1412.00
2019-03-04T11:15:28.521Z,2236.00
2019-03-04T11:16:28.481Z,3120.00
2019-03-04T11:17:28.469Z,3296.00
2019-03-04T11:18:28.446Z,3944.00
2019-03-04T11:19:28.423Z,4404.00
2019-03-04T11:20:28.398Z,4296.00
2019-03-04T11:21:28.377Z,4260.00
2019-03-04T11:22:28.366Z,4160.00
2019-03-04T11:23:28.356Z,3748.00
2019-03-04T11:24:28.328Z,3492.00
2019-03-04T11:25:28.307Z,3340.00
2019-03-04T11:26:28.273Z,3568.00
2019-03-04T11:27:28.249Z,3448.00
2019-03-04T11:28:28.230Z,3560.00
2019-03-04T11:29:28.208Z,3620.00
2019-03-04T11:30:28.186Z,3488.00
2019-03-04T11:31:28.172Z,3036.00
2019-03-04T11:32:28.141Z,2872.00
2019-03-04T11:33:28.129Z,2736.00
2019-03-04T11:34:28.098Z,2576.00
2019-03-04T11:35:28.077Z,2636.00
2019-03-04T11:36:28.054Z,3336.00
2019-03-04T11:37:28.040Z,3960.00
2019-03-04T11:38:28.011Z,5848.00
2019-03-04T11:39:27.991Z,7180.00
2019-03-04T11:40:27.986Z,7716.00
2019-03-04T11:41:27.945Z,7168.00
2019-03-04T11:42:27.925Z,7488.00
2019-03-04T11:43:27.908Z,8340.00
2019-03-04T11:44:27.901Z,8732.00
2019-03-04T11:45:27.858Z,8772.00
2019-03-04T11:46:27.852Z,8940.00
2019-03-04T11:47:27.936Z,8828.00
2019-03-04T11:48:27.792Z,8756.00
2019-03-04T11:49:27.787Z,8836.00
2019-03-04T11:50:27.761Z,8804.00
2019-03-04T11:51:27.874Z,9416.00
2019-03-04T11:52:27.724Z,8844.00
2019-03-04T11:53:27.684Z,7616.00
2019-03-04T11:54:27.674Z,8608.00
2019-03-04T11:55:27.645Z,9028.00
2019-03-04T11:56:27.632Z,8368.00
2019-03-04T11:57:27.609Z,7392.00
2019-03-04T11:58:27.571Z,6936.00
2019-03-04T11:59:27.555Z,7836.00
2019-03-04T12:00:27.536Z,8016.00
2019-03-04T12:01:27.508Z,6600.00
2019-03-04T12:02:27.486Z,6628.00
2019-03-04T12:03:27.463Z,8348.00
2019-03-04T12:04:27.442Z,9236.00
2019-03-04T12:05:27.426Z,10296.00
2019-03-04T12:06:27.400Z,12144.00
2019-03-04T12:07:27.380Z,13284.00
2019-03-04T12:08:27.360Z,13316.00
2019-03-04T12:09:27.341Z,14592.00
2019-03-04T12:10:27.327Z,14828.00
2019-03-04T12:11:27.302Z,18112.00
2019-03-04T12:12:27.268Z,16420.00
2019-03-04T12:13:27.406Z,15252.00
2019-03-04T12:14:27.249Z,18048.00
2019-03-04T12:15:27.204Z,18976.00
2019-03-04T12:16:27.182Z,17568.00
2019-03-04T12:17:27.171Z,18976.00
2019-03-04T12:18:27.149Z,20352.00
2019-03-04T12:19:28.771Z,16116.00
2019-03-04T12:20:27.099Z,12816.00
2019-03-04T12:21:27.079Z,13796.00
2019-03-04T12:22:27.074Z,8508.00
2019-03-04T12:23:27.035Z,5976.00
2019-03-04T12:24:27.015Z,7440.00
2019-03-04T12:25:27.004Z,8068.00
2019-03-04T12:26:26.976Z,6504.00
2019-03-04T12:27:26.959Z,10688.00
2019-03-04T12:28:26.931Z,9184.00
2019-03-04T12:29:26.926Z,11288.00
2019-03-04T12:30:26.893Z,8904.00
2019-03-04T12:31:28.449Z,7184.00
2019-03-04T12:32:26.848Z,9148.00
2019-03-04T12:33:26.844Z,11864.00
2019-03-04T12:34:26.805Z,10340.00
2019-03-04T12:35:26.784Z,10788.00
2019-03-04T12:36:26.768Z,10332.00
2019-03-04T12:37:26.751Z,10896.00
2019-03-04T12:38:26.720Z,9944.00